Time;durP1;ratioP1;P1;durP2;ratioP2;P2;SDS_P1;SDS_P2;PMS_P1;PMS_P2;Temp;Humidity;BMP_temperature;BMP_pressure;BME280_temperature;BME280_humidity;BME280_pressure;Samples;Min_cycle;Max_cycle;Signal;HPM_P1;HPM_P2
2021/04/26 00:01:22;;;;;;;1.70;0.80;;;;;;;6.55;53.48;100364.95;1711975;82;21049;-67
2021/04/26 00:03:51;;;;;;;1.45;0.70;;;;;;;6.50;53.86;100365.47;1760080;81;21047;-67
2021/04/26 00:06:19;;;;;;;1.62;0.78;;;;;;;6.47;54.40;100364.42;1760133;81;21038;-67
2021/04/26 00:08:46;;;;;;;2.25;0.88;;;;;;;6.48;54.98;100365.27;1760273;81;21058;-67
2021/04/26 00:11:15;;;;;;;1.40;0.90;;;;;;;6.45;55.63;100373.27;1760181;81;21145;-66
2021/04/26 00:13:44;;;;;;;2.05;0.90;;;;;;;6.41;56.76;100371.06;1760100;81;21054;-66
2021/04/26 00:16:11;;;;;;;2.25;1.05;;;;;;;6.31;57.51;100374.81;1760085;81;21237;-67
2021/04/26 00:18:38;;;;;;;1.47;0.93;;;;;;;6.25;57.80;100378.22;1760152;81;21334;-66
2021/04/26 00:21:08;;;;;;;1.42;0.80;;;;;;;6.21;58.75;100374.65;1760060;80;21082;-67
2021/04/26 00:23:35;;;;;;;1.05;0.70;;;;;;;6.19;58.52;100376.18;1760140;81;21128;-67
2021/04/26 00:26:04;;;;;;;1.52;0.85;;;;;;;6.10;59.07;100382.64;1760072;81;21014;-67
2021/04/26 00:28:33;;;;;;;0.75;0.62;;;;;;;6.08;59.58;100375.67;1760220;81;21034;-67
2021/04/26 00:31:02;;;;;;;1.25;0.80;;;;;;;6.08;59.88;100387.91;1760134;80;21054;-67
2021/04/26 00:33:30;;;;;;;0.82;0.60;;;;;;;6.08;60.18;100385.19;1760219;81;21295;-66
2021/04/26 00:35:57;;;;;;;2.05;0.90;;;;;;;6.09;60.47;100392.33;1760112;81;21228;-67
2021/04/26 00:38:24;;;;;;;1.07;0.70;;;;;;;6.09;60.60;100397.77;1760163;80;21438;-66
2021/04/26 00:40:52;;;;;;;1.45;0.80;;;;;;;6.01;60.44;100396.73;1760135;81;21372;-67
2021/04/26 00:43:19;;;;;;;1.15;0.68;;;;;;;5.89;61.14;100391.29;1760903;79;21285;-66
2021/04/26 00:45:47;;;;;;;1.17;0.75;;;;;;;5.82;61.96;100387.48;1760164;81;21023;-66
2021/04/26 00:48:14;;;;;;;1.25;0.80;;;;;;;5.77;62.82;100383.05;1760117;81;21059;-66
2021/04/26 00:50:42;;;;;;;3.42;0.72;;;;;;;5.72;63.29;100381.34;1760150;81;21042;-66
2021/04/26 00:53:12;;;;;;;1.62;0.80;;;;;;;5.70;63.80;100370.63;1760127;81;21050;-66
2021/04/26 00:55:40;;;;;;;1.90;0.90;;;;;;;5.69;64.00;100364.86;1730163;81;21102;-66
2021/04/26 00:58:07;;;;;;;2.22;1.05;;;;;;;5.65;64.04;100368.92;1738246;81;21077;-66
2021/04/26 01:00:34;;;;;;;1.45;0.70;;;;;;;5.62;64.85;100357.03;1774141;79;21339;-67
2021/04/26 01:03:02;;;;;;;3.60;0.98;;;;;;;5.62;65.05;100363.83;1774208;81;21136;-67
2021/04/26 01:05:32;;;;;;;2.60;1.10;;;;;;;5.56;65.13;100355.48;1774238;79;21132;-68
2021/04/26 01:08:00;;;;;;;4.83;0.93;;;;;;;5.55;65.60;100345.13;1774198;81;21190;-67
2021/04/26 01:10:33;;;;;;;2.05;0.90;;;;;;;5.53;65.57;100340.88;1758228;81;21817;-66
2021/04/26 01:13:40;;;;;;;2.05;0.90;;;;;;;5.49;65.66;100330.00;1747713;81;21057;-66
2021/04/26 01:16:22;;;;;;;2.42;1.10;;;;;;;5.47;65.61;100336.95;1774172;81;21045;-65
2021/04/26 01:19:14;;;;;;;3.17;0.85;;;;;;;5.44;65.82;100341.36;1774108;81;21058;-66
2021/04/26 01:22:05;;;;;;;1.15;0.90;;;;;;;5.41;65.96;100343.91;1749979;81;21204;-65
2021/04/26 01:24:48;;;;;;;2.45;0.90;;;;;;;5.41;66.22;100347.98;1774204;79;21045;-66
2021/04/26 01:27:37;;;;;;;1.75;1.25;;;;;;;5.44;66.67;100352.74;1814471;78;21341;-66
2021/04/26 01:30:37;;;;;;;1.77;0.80;;;;;;;5.43;66.75;100336.95;1755201;81;21093;-66
2021/04/26 01:33:12;;;;;;;1.47;1.07;;;;;;;5.41;66.75;100323.52;1815166;79;21053;-66
2021/04/26 01:35:44;;;;;;;3.52;0.90;;;;;;;5.38;66.87;100311.63;1816156;79;21117;-65
2021/04/26 01:38:20;;;;;;;1.62;0.85;;;;;;;5.35;67.13;100305.17;1755147;81;21058;-66
2021/04/26 01:40:50;;;;;;;0.90;0.70;;;;;;;5.29;67.26;100312.63;1755111;81;21145;-66
2021/04/26 01:43:22;;;;;;;2.08;1.30;;;;;;;5.25;67.54;100311.27;1755172;81;21320;-67
2021/04/26 01:45:54;;;;;;;3.42;1.27;;;;;;;5.23;67.66;100305.66;1755216;81;21070;-66
2021/04/26 01:48:23;;;;;;;6.47;1.60;;;;;;;5.21;67.88;100313.97;1791085;79;21056;-66
2021/04/26 01:50:52;;;;;;;10.23;2.40;;;;;;;5.22;68.00;100300.73;1816424;78;21236;-65
2021/04/26 01:53:19;;;;;;;11.60;2.87;;;;;;;5.26;68.11;100303.45;1754450;81;21161;-65
2021/04/26 01:55:46;;;;;;;12.73;3.00;;;;;;;5.23;68.11;100308.37;1755091;81;21090;-65
2021/04/26 01:58:14;;;;;;;11.22;2.60;;;;;;;5.21;68.35;100311.76;1753079;81;21841;-66
2021/04/26 02:00:42;;;;;;;12.93;3.00;;;;;;;5.22;68.37;100295.30;1724098;82;21173;-66
2021/04/26 02:03:11;;;;;;;11.95;2.87;;;;;;;5.21;68.33;100300.38;1767872;81;21065;-66
2021/04/26 02:05:40;;;;;;;16.17;2.70;;;;;;;5.18;68.17;100306.12;1766269;81;21841;-66
2021/04/26 02:08:09;;;;;;;13.40;3.20;;;;;;;5.19;68.15;100308.33;1764737;81;21789;-65
2021/04/26 02:10:43;;;;;;;16.07;3.62;;;;;;;5.18;68.32;100310.19;1711303;80;21176;-66
2021/04/26 02:13:24;;;;;;;10.95;2.60;;;;;;;5.22;68.67;100310.23;1786763;80;21030;-65
2021/04/26 02:15:55;;;;;;;8.58;2.67;;;;;;;5.27;68.70;100305.16;1786686;80;21177;-66
2021/04/26 02:18:22;;;;;;;7.50;2.45;;;;;;;5.30;68.83;100304.83;1760336;80;21203;-65
2021/04/26 02:20:50;;;;;;;4.78;2.15;;;;;;;5.34;68.97;100304.83;1760398;80;21050;-65
2021/04/26 02:23:19;;;;;;;10.63;3.22;;;;;;;5.36;68.96;100302.80;1786902;80;21101;-66
2021/04/26 02:25:47;;;;;;;6.62;2.45;;;;;;;5.36;69.06;100296.52;1786769;80;21243;-66
2021/04/26 02:28:15;;;;;;;8.00;2.25;;;;;;;5.34;69.00;100294.47;1786716;80;21069;-65
2021/04/26 02:30:45;;;;;;;6.72;1.98;;;;;;;5.33;68.89;100283.27;1786763;79;21781;-65
2021/04/26 02:33:17;;;;;;;4.45;1.80;;;;;;;5.31;68.82;100276.64;1786764;79;21055;-65
2021/04/26 02:35:59;;;;;;;3.83;1.60;;;;;;;5.33;68.86;100278.69;1766591;80;21304;-67
2021/04/26 02:38:36;;;;;;;3.15;1.20;;;;;;;5.32;68.89;100269.34;1786768;80;21764;-65
2021/04/26 02:41:09;;;;;;;4.12;1.52;;;;;;;5.31;68.83;100272.56;1786946;80;21089;-66
2021/04/26 02:43:41;;;;;;;4.22;1.30;;;;;;;5.29;68.75;100265.09;1786924;79;21139;-65
2021/04/26 02:46:09;;;;;;;6.55;1.40;;;;;;;5.27;68.61;100247.27;1786758;80;21841;-66
2021/04/26 02:48:38;;;;;;;5.72;1.60;;;;;;;5.26;68.63;100245.05;1786912;80;21734;-67
2021/04/26 02:51:05;;;;;;;4.95;1.70;;;;;;;5.26;68.65;100242.84;1755891;79;21149;-67
2021/04/26 02:53:33;;;;;;;3.15;1.42;;;;;;;5.23;68.49;100237.23;1732419;81;21045;-66
2021/04/26 02:56:07;;;;;;;5.97;1.95;;;;;;;5.22;68.49;100223.32;1758240;80;21074;-66
2021/04/26 02:58:37;;;;;;;8.33;2.05;;;;;;;5.25;68.54;100215.34;1732195;81;21110;-67
2021/04/26 03:01:10;;;;;;;4.85;1.50;;;;;;;5.26;68.60;100212.45;1751806;81;21325;-66
2021/04/26 03:03:41;;;;;;;4.30;1.55;;;;;;;5.25;68.19;100207.20;1750637;81;21790;-65
2021/04/26 03:06:10;;;;;;;10.25;2.08;;;;;;;5.21;68.10;100217.55;1733129;80;21056;-65
2021/04/26 03:08:39;;;;;;;6.87;2.00;;;;;;;5.19;68.07;100222.27;1751003;80;21063;-66
2021/04/26 03:11:09;;;;;;;7.90;1.95;;;;;;;5.18;68.09;100213.77;1752172;80;21189;-66
2021/04/26 03:13:37;;;;;;;13.55;2.47;;;;;;;5.17;68.08;100218.86;1752241;82;21746;-66
2021/04/26 03:16:05;;;;;;;8.50;2.10;;;;;;;5.13;68.21;100212.06;1752201;80;21268;-66
2021/04/26 03:18:34;;;;;;;8.15;2.42;;;;;;;5.12;68.32;100219.03;1733041;82;21325;-67
2021/04/26 03:21:03;;;;;;;5.78;1.85;;;;;;;5.15;68.59;100218.69;1703304;83;21311;-65
2021/04/26 03:23:32;;;;;;;5.15;2.08;;;;;;;5.15;68.52;100227.69;1698574;82;21063;-65
2021/04/26 03:26:00;;;;;;;11.75;2.37;;;;;;;5.14;68.48;100230.06;1744551;81;21062;-66
2021/04/26 03:28:28;;;;;;;6.20;2.12;;;;;;;5.12;68.59;100225.81;1744583;80;21091;-66
2021/04/26 03:30:57;;;;;;;4.62;1.82;;;;;;;5.13;68.67;100224.29;1723461;82;21081;-66
2021/04/26 03:33:32;;;;;;;6.15;1.87;;;;;;;5.13;68.69;100223.44;1744176;79;21103;-66
2021/04/26 03:35:59;;;;;;;3.02;1.47;;;;;;;5.04;68.63;100225.29;1683117;82;21411;-65
2021/04/26 03:38:29;;;;;;;3.67;1.47;;;;;;;4.99;68.84;100224.44;1744733;82;21024;-66
2021/04/26 03:40:58;;;;;;;3.83;1.52;;;;;;;4.97;69.07;100220.19;1744624;82;21178;-68
2021/04/26 03:43:27;;;;;;;2.67;1.50;;;;;;;4.93;69.09;100226.96;1744472;81;21294;-67
2021/04/26 03:45:57;;;;;;;3.08;1.15;;;;;;;4.91;69.39;100224.92;1744604;80;21429;-66
2021/04/26 03:48:44;;;;;;;2.75;1.40;;;;;;;4.91;69.33;100227.13;1744741;80;21047;-66
2021/04/26 03:51:31;;;;;;;5.15;2.12;;;;;;;4.91;69.35;100233.91;1753709;80;21047;-66
2021/04/26 03:54:16;;;;;;;4.50;2.00;;;;;;;4.88;69.31;100241.03;1759905;81;21224;-66
2021/04/26 03:56:44;;;;;;;3.83;2.00;;;;;;;4.87;69.11;100242.55;1760103;81;21038;-66
2021/04/26 03:59:13;;;;;;;6.08;2.02;;;;;;;4.84;69.18;100246.95;1759885;81;21082;-67
2021/04/26 04:01:41;;;;;;;5.15;3.10;;;;;;;4.78;69.05;100257.96;1760017;81;21082;-66
2021/04/26 04:04:09;;;;;;;6.42;2.50;;;;;;;4.69;69.15;100253.02;1760075;80;21165;-68
2021/04/26 04:06:55;;;;;;;6.08;2.80;;;;;;;4.72;69.58;100251.83;1759999;80;21200;-66
2021/04/26 04:09:40;;;;;;;7.17;2.80;;;;;;;4.74;69.68;100248.45;1760030;80;21045;-67
2021/04/26 04:12:12;;;;;;;6.25;3.02;;;;;;;4.82;69.92;100250.34;1759011;80;21350;-66
2021/04/26 04:14:42;;;;;;;8.70;3.33;;;;;;;4.90;69.92;100247.14;1759045;81;21153;-66
2021/04/26 04:17:10;;;;;;;10.38;4.20;;;;;;;4.97;69.74;100257.69;1778888;79;21062;-66
2021/04/26 04:19:37;;;;;;;12.13;4.53;;;;;;;4.98;69.71;100258.03;1746331;82;21302;-66
2021/04/26 04:22:07;;;;;;;14.18;5.00;;;;;;;4.99;69.63;100254.80;1745890;82;21902;-65
2021/04/26 04:24:35;;;;;;;15.90;5.33;;;;;;;4.96;69.32;100251.91;1746454;81;21058;-67
2021/04/26 04:27:04;;;;;;;17.10;4.95;;;;;;;4.97;69.52;100249.54;1749817;82;21759;-65
2021/04/26 04:29:31;;;;;;;18.37;4.40;;;;;;;4.99;69.66;100236.66;1746304;81;21110;-65
2021/04/26 04:32:06;;;;;;;13.95;5.40;;;;;;;5.05;70.03;100248.20;1725321;82;21921;-66
2021/04/26 04:34:52;;;;;;;15.18;5.80;;;;;;;5.13;70.19;100239.73;1746375;82;21842;-67
2021/04/26 04:37:31;;;;;;;14.43;6.50;;;;;;;5.22;70.10;100241.48;1733151;82;21161;-66
2021/04/26 04:40:17;;;;;;;17.05;5.08;;;;;;;5.29;70.09;100256.09;1746274;82;21059;-66
2021/04/26 04:42:47;;;;;;;17.50;5.85;;;;;;;5.31;69.29;100258.98;1749822;82;21832;-66
2021/04/26 04:45:19;;;;;;;15.00;5.08;;;;;;;5.28;68.87;100266.11;1746292;81;21058;-67
2021/04/26 04:47:46;;;;;;;16.70;5.42;;;;;;;5.26;68.57;100257.78;1745401;82;21063;-66
2021/04/26 04:50:14;;;;;;;7.72;3.65;;;;;;;5.28;68.57;100253.89;1746351;82;21332;-66
2021/04/26 04:52:42;;;;;;;9.05;4.10;;;;;;;5.33;68.82;100256.95;1749843;82;21003;-66
2021/04/26 04:55:10;;;;;;;8.20;3.98;;;;;;;5.35;68.60;100268.50;1746531;82;21081;-67
2021/04/26 04:57:38;;;;;;;7.12;3.15;;;;;;;5.39;68.76;100278.02;1749844;82;21241;-66
2021/04/26 05:00:07;;;;;;;6.53;2.95;;;;;;;5.44;68.37;100271.23;1716575;81;21379;-66
2021/04/26 05:02:55;;;;;;;3.02;1.92;;;;;;;5.50;68.16;100264.61;1749827;82;21214;-67
2021/04/26 05:05:41;;;;;;;4.85;2.17;;;;;;;5.54;68.01;100247.46;1746324;82;21360;-66
2021/04/26 05:08:27;;;;;;;5.33;2.22;;;;;;;5.59;67.87;100245.08;1749758;82;21337;-66
2021/04/26 05:11:13;;;;;;;4.60;1.92;;;;;;;5.63;68.05;100239.65;1746284;82;21758;-66
2021/04/26 05:13:45;;;;;;;3.05;2.20;;;;;;;5.70;68.06;100246.95;1737246;82;21213;-68
2021/04/26 05:16:14;;;;;;;2.92;1.60;;;;;;;5.78;67.95;100249.33;1717028;82;21370;-67
2021/04/26 05:18:42;;;;;;;2.58;1.82;;;;;;;5.83;67.83;100252.38;1749746;82;21063;-66
2021/04/26 05:21:09;;;;;;;3.05;2.25;;;;;;;5.87;67.66;100247.83;1746300;82;21070;-66
2021/04/26 05:23:36;;;;;;;2.37;1.52;;;;;;;5.92;67.55;100256.34;1749712;82;21058;-67
2021/04/26 05:26:04;;;;;;;2.65;1.92;;;;;;;5.96;67.18;100257.70;1746346;82;21234;-66
2021/04/26 05:28:31;;;;;;;2.75;1.72;;;;;;;5.95;66.99;100250.56;1749782;82;21245;-67
2021/04/26 05:30:59;;;;;;;2.98;1.77;;;;;;;5.92;66.66;100256.34;1746329;81;21233;-67
2021/04/26 05:33:27;;;;;;;3.20;1.55;;;;;;;5.90;66.19;100258.39;1749757;82;21070;-67
2021/04/26 05:35:54;;;;;;;1.67;1.17;;;;;;;5.91;66.30;100258.73;1746207;82;21225;-65
2021/04/26 05:38:23;;;;;;;3.40;1.70;;;;;;;5.94;66.24;100262.47;1720148;82;21071;-68
2021/04/26 05:40:50;;;;;;;3.80;2.22;;;;;;;5.99;65.97;100265.52;1746489;82;21298;-67
2021/04/26 05:43:19;;;;;;;2.90;1.30;;;;;;;6.02;65.41;100257.53;1714086;82;21071;-67
2021/04/26 05:45:48;;;;;;;4.55;1.25;;;;;;;6.05;64.89;100258.55;1746353;82;21782;-66
2021/04/26 05:48:18;;;;;;;2.37;1.30;;;;;;;6.03;64.58;100261.44;1749675;82;21107;-67
2021/04/26 05:50:46;;;;;;;1.95;1.35;;;;;;;5.99;64.40;100253.28;1746353;81;21086;-67
2021/04/26 05:53:13;;;;;;;3.22;2.00;;;;;;;6.00;64.74;100250.91;1749768;82;21293;-67
2021/04/26 05:55:40;;;;;;;1.80;1.30;;;;;;;6.03;64.78;100253.28;1746325;82;21078;-66
2021/04/26 05:58:08;;;;;;;1.80;1.20;;;;;;;6.09;64.90;100249.53;1749804;82;21310;-66
2021/04/26 06:00:35;;;;;;;3.25;1.17;;;;;;;6.13;64.75;100243.57;1725737;81;21092;-66
2021/04/26 06:03:03;;;;;;;2.70;1.37;;;;;;;6.21;64.71;100239.98;1728667;83;21783;-67
2021/04/26 06:05:30;;;;;;;2.15;1.10;;;;;;;6.31;64.54;100238.77;1749213;82;21348;-68
2021/04/26 06:07:59;;;;;;;3.10;1.35;;;;;;;6.36;64.05;100237.73;1728715;83;21105;-69
2021/04/26 06:10:27;;;;;;;1.50;1.25;;;;;;;6.40;64.06;100236.87;1786676;80;21110;-67
2021/04/26 06:12:54;;;;;;;1.95;1.30;;;;;;;6.43;64.05;100237.03;1786735;80;21029;-67
2021/04/26 06:15:25;;;;;;;1.60;1.20;;;;;;;6.46;63.19;100239.41;1786739;80;21308;-68
2021/04/26 06:18:14;;;;;;;5.17;1.42;;;;;;;6.45;62.67;100235.83;1786691;80;21022;-67
2021/04/26 06:20:43;;;;;;;2.45;1.25;;;;;;;6.39;62.22;100240.61;1786672;80;21050;-66
2021/04/26 06:23:10;;;;;;;5.37;1.40;;;;;;;6.30;62.09;100238.94;1786702;80;21423;-66
2021/04/26 06:25:38;;;;;;;3.22;1.52;;;;;;;6.29;62.25;100236.73;1783910;80;21329;-67
2021/04/26 06:28:06;;;;;;;3.92;1.40;;;;;;;6.34;62.60;100233.48;1786674;80;21271;-66
2021/04/26 06:30:34;;;;;;;4.80;1.67;;;;;;;6.43;62.56;100234.31;1786858;80;21282;-67
2021/04/26 06:33:01;;;;;;;3.05;1.50;;;;;;;6.53;62.46;100234.47;1786694;80;21273;-67
2021/04/26 06:35:29;;;;;;;3.50;1.62;;;;;;;6.63;62.06;100241.07;1786653;80;21303;-68
2021/04/26 06:37:56;;;;;;;2.17;1.20;;;;;;;6.74;62.13;100235.75;1786557;79;21226;-67
2021/04/26 06:40:23;;;;;;;2.22;1.30;;;;;;;6.85;61.71;100233.48;1786598;80;21333;-67
2021/04/26 06:42:52;;;;;;;2.12;1.45;;;;;;;6.99;61.40;100239.53;1786903;80;21086;-68
2021/04/26 06:45:23;;;;;;;6.12;2.15;;;;;;;7.11;61.27;100231.80;1786730;80;21618;-67
2021/04/26 06:47:51;;;;;;;5.65;2.40;;;;;;;7.18;60.89;100238.27;1786755;80;21329;-67
2021/04/26 06:50:19;;;;;;;4.22;2.65;;;;;;;7.14;59.34;100238.26;1786544;80;21870;-67
2021/04/26 06:52:47;;;;;;;6.83;2.17;;;;;;;6.97;59.41;100242.95;1786690;80;21350;-66
2021/04/26 06:55:14;;;;;;;4.12;1.92;;;;;;;6.91;59.38;100237.37;1786687;80;21015;-67
2021/04/26 06:57:42;;;;;;;5.60;1.70;;;;;;;6.89;59.90;100237.55;1786755;80;21077;-67
2021/04/26 07:00:11;;;;;;;3.67;2.00;;;;;;;6.93;59.85;100233.44;1800777;78;21309;-68
2021/04/26 07:02:38;;;;;;;2.83;1.90;;;;;;;7.02;60.19;100230.16;1751608;82;21255;-67
2021/04/26 07:05:07;;;;;;;5.12;2.00;;;;;;;7.12;59.96;100232.14;1755088;81;21062;-67
2021/04/26 07:07:35;;;;;;;4.50;2.17;;;;;;;7.24;59.90;100227.16;1734231;81;22010;-68
2021/04/26 07:10:04;;;;;;;3.33;1.98;;;;;;;7.36;60.04;100224.34;1692242;84;21194;-66
2021/04/26 07:12:32;;;;;;;4.72;2.60;;;;;;;7.46;58.76;100224.11;1707092;83;21085;-69
2021/04/26 07:14:59;;;;;;;7.10;2.22;;;;;;;7.53;58.49;100222.34;1711936;83;21300;-67
2021/04/26 07:17:27;;;;;;;5.33;2.40;;;;;;;7.64;58.27;100222.77;1722004;82;21086;-67
2021/04/26 07:19:55;;;;;;;4.28;2.22;;;;;;;7.75;57.43;100219.27;1724519;81;21197;-67
2021/04/26 07:22:22;;;;;;;4.35;2.25;;;;;;;7.88;57.57;100217.64;1712676;82;21058;-68
2021/04/26 07:24:51;;;;;;;3.98;2.30;;;;;;;8.06;57.28;100221.90;1727713;81;21153;-68
2021/04/26 07:27:18;;;;;;;3.62;1.80;;;;;;;8.22;56.43;100218.48;1727686;81;21353;-66
2021/04/26 07:29:45;;;;;;;4.47;2.30;;;;;;;8.37;55.49;100216.31;1713832;82;21241;-67
2021/04/26 07:32:13;;;;;;;4.15;1.90;;;;;;;8.46;54.02;100215.22;1710737;84;21309;-68
2021/04/26 07:34:40;;;;;;;3.83;2.00;;;;;;;8.45;52.40;100225.77;1721487;81;21292;-69
2021/04/26 07:37:08;;;;;;;3.12;2.10;;;;;;;8.45;52.33;100222.56;1750995;82;21144;-67
2021/04/26 07:39:35;;;;;;;5.90;2.20;;;;;;;8.50;52.36;100217.90;1755048;81;21066;-69
2021/04/26 07:42:04;;;;;;;6.42;1.77;;;;;;;8.52;52.54;100218.04;1751389;82;21090;-68
2021/04/26 07:44:32;;;;;;;2.47;1.60;;;;;;;8.52;50.73;100213.94;1754850;81;21054;-67
2021/04/26 07:46:59;;;;;;;6.33;2.08;;;;;;;8.50;49.29;100210.55;1751499;82;21149;-67
2021/04/26 07:49:27;;;;;;;5.00;2.22;;;;;;;8.40;49.75;100216.78;1754864;81;21312;-67
2021/04/26 07:51:56;;;;;;;6.15;1.92;;;;;;;8.35;50.72;100220.59;1743169;81;21046;-67
2021/04/26 07:54:23;;;;;;;7.45;1.80;;;;;;;8.34;51.35;100227.09;1754928;81;21173;-67
2021/04/26 07:56:50;;;;;;;3.25;1.57;;;;;;;8.29;51.99;100229.50;1751334;82;21065;-67
2021/04/26 07:59:21;;;;;;;3.87;1.90;;;;;;;8.22;50.59;100229.92;1754789;81;21078;-67
2021/04/26 08:01:48;;;;;;;5.47;2.47;;;;;;;8.07;50.17;100230.42;1726852;82;21121;-68
2021/04/26 08:04:16;;;;;;;5.78;1.98;;;;;;;7.92;50.85;100227.14;1702902;83;21177;-67
2021/04/26 08:06:43;;;;;;;3.05;1.40;;;;;;;7.86;51.15;100229.25;1717854;82;21313;-67
2021/04/26 08:09:11;;;;;;;3.47;1.52;;;;;;;7.86;50.58;100225.16;1718703;83;21356;-67
2021/04/26 08:11:40;;;;;;;2.22;1.30;;;;;;;7.88;50.00;100229.91;1718686;82;21063;-68
2021/04/26 08:14:07;;;;;;;3.10;1.80;;;;;;;7.90;49.47;100229.22;1718719;83;21105;-68
2021/04/26 08:16:34;;;;;;;3.12;1.50;;;;;;;7.94;49.09;100217.41;1690716;82;21066;-67
2021/04/26 08:19:02;;;;;;;4.83;1.27;;;;;;;8.01;48.72;100222.98;1714371;81;21050;-68
2021/04/26 08:21:30;;;;;;;2.58;1.22;;;;;;;8.08;48.46;100217.11;1710934;84;21094;-67
2021/04/26 08:23:57;;;;;;;1.87;1.02;;;;;;;8.17;48.00;100216.84;1733445;81;21332;-68
2021/04/26 08:26:24;;;;;;;2.45;0.72;;;;;;;8.28;47.48;100215.53;1763689;81;21347;-67
2021/04/26 08:28:52;;;;;;;1.42;0.95;;;;;;;8.37;46.67;100210.34;1763691;81;21065;-68
2021/04/26 08:31:19;;;;;;;4.15;1.75;;;;;;;8.48;45.15;100205.80;1763832;81;21038;-68
2021/04/26 08:33:46;;;;;;;4.10;1.87;;;;;;;8.53;45.11;100212.91;1733327;81;21349;-69
2021/04/26 08:36:15;;;;;;;3.62;1.50;;;;;;;8.59;45.97;100212.66;1711016;82;21405;-67
2021/04/26 08:38:42;;;;;;;8.03;1.72;;;;;;;8.70;44.32;100209.45;1711104;83;21313;-67
2021/04/26 08:41:14;;;;;;;1.55;1.02;;;;;;;8.78;42.88;100210.71;1710911;82;21860;-69
2021/04/26 08:43:42;;;;;;;4.37;1.00;;;;;;;8.87;41.96;100208.72;1710999;84;21184;-69
2021/04/26 08:46:10;;;;;;;2.40;1.00;;;;;;;8.95;41.96;100209.13;1721487;81;21184;-67
2021/04/26 08:48:37;;;;;;;2.40;1.10;;;;;;;9.04;41.78;100202.50;1751762;82;21815;-70
2021/04/26 08:51:06;;;;;;;1.85;1.00;;;;;;;9.09;41.23;100218.66;1760587;81;21325;-69
2021/04/26 08:53:34;;;;;;;1.82;1.00;;;;;;;9.09;40.93;100211.81;1751886;82;21193;-68
2021/04/26 08:56:07;;;;;;;3.95;1.52;;;;;;;9.09;41.27;100213.70;1706712;83;21075;-66
2021/04/26 08:58:35;;;;;;;3.37;1.30;;;;;;;9.09;40.67;100215.92;1719097;83;21079;-67
2021/04/26 09:01:03;;;;;;;4.62;1.52;;;;;;;9.01;39.78;100218.77;1718722;83;21116;-69
2021/04/26 09:03:36;;;;;;;2.95;1.12;;;;;;;8.95;40.21;100216.80;1718961;83;21268;-67
2021/04/26 09:06:06;;;;;;;1.25;0.82;;;;;;;8.96;39.95;100213.55;1718910;83;21054;-69
2021/04/26 09:08:35;;;;;;;1.95;0.90;;;;;;;8.93;39.82;100217.52;1692561;82;21049;-68
2021/04/26 09:11:06;;;;;;;1.27;0.90;;;;;;;8.93;39.41;100215.30;1718882;83;21050;-68
2021/04/26 09:13:42;;;;;;;4.28;1.20;;;;;;;8.99;39.82;100222.21;1712523;82;21310;-69
2021/04/26 09:16:22;;;;;;;1.47;0.98;;;;;;;9.12;39.64;100217.45;1724753;81;21045;-68
2021/04/26 09:18:57;;;;;;;2.55;0.90;;;;;;;9.33;39.73;100216.63;1755627;81;21301;-68
2021/04/26 09:21:38;;;;;;;1.87;0.93;;;;;;;9.57;38.84;100212.66;1755568;81;21122;-67
2021/04/26 09:24:28;;;;;;;3.05;1.12;;;;;;;9.66;39.06;100210.97;1721930;82;21184;-68
2021/04/26 09:27:13;;;;;;;;;;;;;;;9.69;38.38;100216.05;1717313;83;21049;-67
2021/04/26 09:29:41;;;;;;;4.08;1.10;;;;;;;9.62;37.92;100219.23;1717891;83;20173;-68
2021/04/26 09:32:14;;;;;;;3.77;1.45;;;;;;;9.51;37.56;100217.03;1699502;83;21073;-68
2021/04/26 09:34:51;;;;;;;1.98;1.10;;;;;;;9.31;37.55;100218.71;1718634;82;21310;-68
2021/04/26 09:37:26;;;;;;;1.27;0.65;;;;;;;9.15;38.28;100220.65;1712013;82;21481;-68
2021/04/26 09:40:10;;;;;;;2.83;1.20;;;;;;;9.12;39.00;100220.19;1727248;82;21267;-68
2021/04/26 09:42:43;;;;;;;6.62;1.50;;;;;;;9.12;39.17;100218.30;1710212;82;21118;-67
2021/04/26 09:45:24;;;;;;;2.62;1.20;;;;;;;9.10;39.07;100222.23;1703605;82;21142;-66
2021/04/26 09:48:19;;;;;;;4.95;1.60;;;;;;;9.10;39.30;100216.77;1705767;83;21401;-64
2021/04/26 09:50:55;;;;;;;3.67;1.40;;;;;;;9.15;37.72;100217.06;1694942;83;21038;-66
2021/04/26 09:53:43;;;;;;;2.75;1.00;;;;;;;9.19;37.16;100214.27;1747837;80;21661;-68
2021/04/26 09:56:20;;;;;;;4.00;1.10;;;;;;;9.22;35.81;100215.25;1744072;80;21090;-64
2021/04/26 09:58:54;;;;;;;2.08;1.02;;;;;;;9.17;36.33;100218.56;1713399;82;21335;-65
2021/04/26 10:01:23;;;;;;;3.27;1.40;;;;;;;9.23;37.01;100218.83;1715805;82;21048;-68
2021/04/26 10:03:52;;;;;;;2.55;0.93;;;;;;;9.33;37.31;100219.36;1720220;83;21119;-64
2021/04/26 10:06:24;;;;;;;3.75;0.95;;;;;;;9.39;36.62;100222.17;1722601;83;21064;-66
2021/04/26 10:09:00;;;;;;;2.15;0.98;;;;;;;9.45;36.01;100228.23;1774848;80;21040;-64
2021/04/26 10:11:31;;;;;;;2.42;0.82;;;;;;;9.48;35.94;100229.72;1774458;80;21302;-69
2021/04/26 10:14:04;;;;;;;3.52;0.93;;;;;;;9.49;35.26;100236.89;1774940;80;21031;-64
2021/04/26 10:16:56;;;;;;;1.42;0.85;;;;;;;9.52;34.87;100226.41;1788415;78;21067;-66
2021/04/26 10:19:40;;;;;;;2.62;0.90;;;;;;;9.61;35.17;100222.17;1746281;82;21094;-69
2021/04/26 10:22:09;;;;;;;2.98;0.88;;;;;;;9.74;34.18;100213.56;1749983;82;21263;-66
2021/04/26 10:24:53;;;;;;;2.70;0.80;;;;;;;9.87;34.58;100210.13;1712813;82;21094;-68
2021/04/26 10:27:37;;;;;;;2.58;1.20;;;;;;;10.01;34.10;100219.29;1744706;82;21333;-68
2021/04/26 10:30:11;;;;;;;3.67;1.30;;;;;;;10.08;33.60;100210.08;1748664;80;21075;-67
2021/04/26 10:33:03;;;;;;;2.85;1.00;;;;;;;10.08;32.03;100203.76;1775329;80;21668;-71
2021/04/26 10:35:50;;;;;;;3.95;0.70;;;;;;;9.92;32.18;100209.01;1775396;80;21222;-67
2021/04/26 10:38:46;;;;;;;2.37;0.80;;;;;;;9.81;32.62;100212.28;1770952;80;21389;-68
2021/04/26 10:41:48;;;;;;;3.58;1.07;;;;;;;9.72;33.05;100216.17;1768857;79;21094;-65
2021/04/26 10:44:44;;;;;;;2.15;0.80;;;;;;;9.72;33.59;100216.17;1746413;82;21054;-68
2021/04/26 10:47:31;;;;;;;2.00;0.95;;;;;;;9.76;33.85;100222.45;1737160;82;21049;-65
2021/04/26 10:50:15;;;;;;;1.45;0.85;;;;;;;9.74;34.35;100216.30;1752916;80;21247;-65
2021/04/26 10:52:54;;;;;;;2.72;1.00;;;;;;;9.77;33.98;100214.56;1769066;79;21392;-65
2021/04/26 10:55:36;;;;;;;3.45;0.95;;;;;;;9.83;33.75;100211.04;1773690;81;21204;-63
2021/04/26 10:58:21;;;;;;;2.50;0.98;;;;;;;9.93;33.26;100220.80;1709982;83;21694;-66
2021/04/26 11:00:49;;;;;;;1.65;0.82;;;;;;;9.99;32.97;100226.85;1740074;81;21193;-66
2021/04/26 11:03:25;;;;;;;1.95;0.90;;;;;;;10.02;32.68;100229.19;1757881;81;21157;-66
2021/04/26 11:05:53;;;;;;;1.87;0.90;;;;;;;10.04;32.47;100231.20;1758025;81;21157;-66
2021/04/26 11:08:35;;;;;;;2.35;1.30;;;;;;;10.03;31.85;100231.73;1757838;81;21242;-64
2021/04/26 11:11:16;;;;;;;1.47;0.93;;;;;;;9.99;32.24;100221.38;1773943;80;21154;-66
2021/04/26 11:13:48;;;;;;;3.17;1.17;;;;;;;10.04;32.80;100223.00;1787172;80;21137;-67
2021/04/26 11:16:21;;;;;;;1.47;0.75;;;;;;;10.18;32.30;100222.89;1717339;83;21726;-63
2021/04/26 11:19:04;;;;;;;2.20;0.82;;;;;;;10.30;30.77;100216.37;1714905;82;21085;-64
2021/04/26 11:21:49;;;;;;;2.12;0.78;;;;;;;10.41;31.20;100204.89;1720125;83;21065;-65
2021/04/26 11:24:30;;;;;;;1.85;1.20;;;;;;;10.64;31.38;100207.86;1709663;81;21786;-63
2021/04/26 11:27:19;;;;;;;7.78;1.40;;;;;;;10.89;31.77;100213.66;1709072;82;21039;-65
2021/04/26 11:29:53;;;;;;;8.38;2.27;;;;;;;11.02;30.73;100202.23;1724982;81;21081;-62
2021/04/26 11:32:22;;;;;;;2.87;0.98;;;;;;;10.97;30.04;100203.89;1724859;81;21094;-66
2021/04/26 11:34:59;;;;;;;10.10;6.03;;;;;;;10.77;30.96;100206.03;1723410;83;21038;-64
2021/04/26 11:37:37;;;;;;;5.25;1.30;;;;;;;10.68;30.66;100217.36;1708410;83;21349;-62
2021/04/26 11:40:21;;;;;;;7.45;1.27;;;;;;;10.51;30.12;100237.92;1715298;82;21060;-62
2021/04/26 11:42:49;;;;;;;3.77;0.90;;;;;;;10.22;30.52;100218.42;1725538;82;21079;-63
2021/04/26 11:45:21;;;;;;;2.47;0.72;;;;;;;10.15;31.64;100215.08;1722139;82;21317;-62
2021/04/26 11:47:49;;;;;;;2.05;0.80;;;;;;;10.32;31.20;100229.87;1709332;82;21178;-68
2021/04/26 11:50:16;;;;;;;2.17;0.90;;;;;;;10.47;30.67;100206.83;1711602;82;21083;-66
2021/04/26 11:52:44;;;;;;;1.92;0.90;;;;;;;10.69;30.90;100209.47;1721321;82;21091;-64
2021/04/26 11:55:19;;;;;;;3.75;0.90;;;;;;;10.98;30.93;100211.06;1734500;82;21105;-63